Nong Khai, Thailand

12:07 AM ICT on August 31, 2016 (GMT +0700)
tha bo moo 1 | | Change Station

Elev 571 ft 17.86 °N, 102.58 °E | Updated 12 minutes ago

Thunderstorm
Thunderstorm
77.5 °F
Feels Like 79 °F
N
0.0
Wind Variable Wind from South
Gusts 0.0 mph

Today
High -- | Low -- °F
--% Chance of Precip.
Yesterday
High -- | Low -- °F
Precip. -- in
Pressure 29.80 in
Visibility 1.9 miles
Clouds Few 3000 ft
Mostly Cloudy 4000 ft
Mostly Cloudy 8300 ft
Heat Index 79 °F
Dew Point 76 °F
Humidity 95%
Rainfall --
Snow Depth Not available.
5:54 AM 6:23 PM
Waning Crescent, 3% visible
METAR VLVT 301600Z 27004KT 3000 TS FEW030CB BKN040 BKN083 25/24 Q1009 CB,E NOSIG
Pressure 29.80 in
Visibility 1.9 miles
Clouds Few 3000 ft
Mostly Cloudy 4000 ft
Mostly Cloudy 8300 ft
Heat Index 79 °F
Dew Point 76 °F
Humidity 95%
Rainfall --
Snow Depth Not available.
5:54 AM 6:23 PM
Waning Crescent, 3% visible
METAR VLVT 301600Z 27004KT 3000 TS FEW030CB BKN040 BKN083 25/24 Q1009 CB,E NOSIG

10-Day Weather Forecast

No radar image for this location.
×

Almanac

Astronomy

Aug. 31, 2016 Rise Set
Actual Time
Civil Twilight
Nautical Twilight
Astronomical Twilight
Moon
Length of Visible Light
Length of Day
Tomorrow will be .
, % of the Moon is Illuminated

Today's Extremes

Country Highs Country Lows

Community

WunderPhotos

Upload Photos

1,935,845 photos uploaded!

WunderBlog® & News

Nearby

Air Quality

  Air Quality AQ Index Pollutant
Not available.

Snow Depth

Station Depth Elevation

Earthquake Activity

City Distance Mag. Time & Date
Minimum magnitude displayed is 2.5.

Coastal Water Temperatures

Place Temperature

Stations

Nearby Weather Stations

Station Location Temp. Windchill Dew Point Humidity Wind Precip. Elev Updated Type